createdAt,value
2023-02-22T00:00:44.388Z,6.09
2023-02-22T00:03:17.888Z,6.08
2023-02-22T00:05:54.003Z,6.11
2023-02-22T00:08:30.648Z,6.13
2023-02-22T00:11:05.276Z,6.19
2023-02-22T00:13:37.686Z,6.10
2023-02-22T00:16:13.284Z,6.07
2023-02-22T00:18:46.010Z,6.05
2023-02-22T00:21:19.176Z,6.07
2023-02-22T00:23:54.900Z,6.01
2023-02-22T00:26:28.095Z,5.96
2023-02-22T00:29:00.302Z,5.95
2023-02-22T00:31:32.199Z,6.01
2023-02-22T00:34:03.734Z,6.13
2023-02-22T00:36:36.195Z,6.10
2023-02-22T00:39:09.741Z,6.10
2023-02-22T00:41:41.306Z,6.07
2023-02-22T00:44:12.874Z,6.09
2023-02-22T00:46:45.409Z,5.96
2023-02-22T00:49:17.192Z,5.97
2023-02-22T00:51:49.989Z,5.99
2023-02-22T00:54:21.463Z,6.04
2023-02-22T00:56:53.549Z,6.05
2023-02-22T00:59:25.451Z,5.99
2023-02-22T01:01:57.505Z,5.90
2023-02-22T01:04:29.252Z,5.95
2023-02-22T01:07:02.754Z,5.94
2023-02-22T01:09:35.190Z,5.88
2023-02-22T01:12:08.363Z,5.81
2023-02-22T01:14:40.421Z,5.71
2023-02-22T01:17:12.668Z,5.78
2023-02-22T01:19:44.619Z,5.76
2023-02-22T01:22:16.313Z,5.60
2023-02-22T01:24:48.313Z,5.57
2023-02-22T01:27:20.676Z,5.60
2023-02-22T01:29:53.362Z,5.58
2023-02-22T01:32:24.954Z,5.68
2023-02-22T01:34:58.110Z,5.66
2023-02-22T01:37:29.681Z,5.65
2023-02-22T01:40:01.353Z,5.59
2023-02-22T01:42:33.112Z,5.51
2023-02-22T01:45:44.306Z,5.43
2023-02-22T01:48:22.661Z,5.54
2023-02-22T01:51:02.876Z,5.68
2023-02-22T01:53:39.003Z,5.58
2023-02-22T01:56:12.360Z,5.54
2023-02-22T01:58:48.172Z,5.59
2023-02-22T02:01:23.448Z,5.49
2023-02-22T02:03:58.478Z,5.58
2023-02-22T02:06:35.423Z,5.52
2023-02-22T02:09:13.937Z,5.42
2023-02-22T02:11:46.140Z,5.45
2023-02-22T02:14:18.494Z,5.47
2023-02-22T02:16:53.744Z,5.43
2023-02-22T02:19:34.975Z,5.46
2023-02-22T02:22:30.851Z,5.45
2023-02-22T02:25:47.399Z,5.54
2023-02-22T02:28:47.830Z,5.44
2023-02-22T02:32:10.445Z,5.36
2023-02-22T02:34:48.720Z,5.42
2023-02-22T02:37:37.085Z,5.43
2023-02-22T02:40:23.990Z,5.40
2023-02-22T02:43:06.514Z,5.55
2023-02-22T02:45:46.747Z,5.39
2023-02-22T02:48:22.787Z,5.26
2023-02-22T02:50:57.232Z,5.22
2023-02-22T02:53:35.543Z,5.30
2023-02-22T02:56:08.012Z,5.28
2023-02-22T02:58:49.445Z,5.29
2023-02-22T03:01:36.033Z,5.24
2023-02-22T03:04:24.756Z,5.27
2023-02-22T03:07:13.151Z,5.24
2023-02-22T03:10:00.655Z,5.09
2023-02-22T03:12:44.846Z,5.19
2023-02-22T03:15:29.945Z,5.11
2023-02-22T03:18:03.642Z,5.14
2023-02-22T03:20:45.750Z,5.25
2023-02-22T03:23:26.408Z,5.16
2023-02-22T03:26:04.785Z,5.00
2023-02-22T03:28:40.300Z,5.04
2023-02-22T03:31:17.752Z,5.08
2023-02-22T03:33:54.738Z,5.14
2023-02-22T03:36:30.105Z,5.00
2023-02-22T03:39:04.532Z,4.91
2023-02-22T03:41:40.081Z,4.72
2023-02-22T03:44:17.026Z,4.58
2023-02-22T03:46:52.360Z,4.54
2023-02-22T03:49:33.503Z,4.43
2023-02-22T03:52:06.372Z,4.54
2023-02-22T03:54:38.824Z,4.51
2023-02-22T03:57:16.739Z,4.45
2023-02-22T03:59:49.281Z,4.35
2023-02-22T04:02:21.109Z,4.27
2023-02-22T04:04:53.101Z,4.23
2023-02-22T04:07:25.228Z,4.13
2023-02-22T04:09:56.898Z,4.04
2023-02-22T04:12:29.867Z,4.09
2023-02-22T04:15:02.217Z,4.11
2023-02-22T04:17:33.762Z,3.97
2023-02-22T04:20:07.354Z,3.95
2023-02-22T04:22:39.746Z,3.95
2023-02-22T04:25:12.127Z,4.17
2023-02-22T04:27:49.394Z,4.33
2023-02-22T04:30:27.902Z,4.35
2023-02-22T04:33:05.463Z,4.32
2023-02-22T04:35:37.427Z,4.18
2023-02-22T04:38:09.583Z,4.04
2023-02-22T04:40:41.476Z,4.04
2023-02-22T04:43:13.382Z,4.14
2023-02-22T04:45:45.020Z,4.03
2023-02-22T04:48:17.256Z,3.90
2023-02-22T04:50:49.948Z,3.74
2023-02-22T04:53:21.585Z,3.72
2023-02-22T04:55:53.967Z,3.74
2023-02-22T04:58:25.781Z,3.82
2023-02-22T05:00:59.114Z,3.99
2023-02-22T05:03:31.103Z,4.07
2023-02-22T05:06:03.128Z,4.10
2023-02-22T05:08:35.246Z,3.99
2023-02-22T05:11:07.323Z,3.90
2023-02-22T05:13:39.720Z,3.79
2023-02-22T05:16:12.077Z,3.70
2023-02-22T05:18:44.824Z,3.61
2023-02-22T05:21:17.481Z,3.74
2023-02-22T05:23:49.465Z,3.71
2023-02-22T05:26:21.055Z,3.76
2023-02-22T05:28:52.651Z,3.83
2023-02-22T05:31:24.400Z,3.88
2023-02-22T05:33:56.013Z,3.89
2023-02-22T05:36:28.358Z,3.82
2023-02-22T05:38:59.850Z,3.77
2023-02-22T05:41:32.280Z,3.76
2023-02-22T05:44:04.570Z,3.80
2023-02-22T05:46:36.095Z,3.91
2023-02-22T05:49:07.758Z,3.88
2023-02-22T05:51:39.705Z,3.76
2023-02-22T05:54:11.466Z,3.71
2023-02-22T05:56:44.574Z,3.72
2023-02-22T05:59:16.577Z,3.76
2023-02-22T06:01:48.304Z,3.79
2023-02-22T06:04:20.559Z,3.64
2023-02-22T06:06:52.537Z,3.56
2023-02-22T06:09:24.806Z,3.58
2023-02-22T06:11:56.819Z,3.74
2023-02-22T06:14:28.678Z,3.76
2023-02-22T06:17:01.187Z,3.71
2023-02-22T06:19:32.797Z,3.59
2023-02-22T06:22:04.376Z,3.52
2023-02-22T06:24:36.011Z,3.66
2023-02-22T06:27:08.632Z,3.71
2023-02-22T06:29:40.120Z,3.64
2023-02-22T06:32:11.791Z,3.65
2023-02-22T06:34:43.990Z,3.76
2023-02-22T06:37:15.530Z,3.75
2023-02-22T06:39:47.206Z,3.79
2023-02-22T06:42:19.388Z,3.77
2023-02-22T06:44:51.826Z,3.67
2023-02-22T06:47:23.628Z,3.61
2023-02-22T06:49:58.381Z,3.63
2023-02-22T06:52:30.155Z,3.54
2023-02-22T06:55:02.004Z,3.61
2023-02-22T06:57:33.628Z,3.85
2023-02-22T07:00:07.298Z,3.91
2023-02-22T07:02:39.290Z,3.93
2023-02-22T07:05:12.048Z,3.92
2023-02-22T07:07:43.671Z,3.97
2023-02-22T07:10:24.020Z,4.11
2023-02-22T07:12:55.809Z,4.25
2023-02-22T07:15:29.580Z,4.20
2023-02-22T07:18:02.385Z,4.12
2023-02-22T07:20:34.689Z,4.06
2023-02-22T07:23:06.427Z,3.99
2023-02-22T07:25:38.313Z,4.04
2023-02-22T07:28:11.311Z,4.09
2023-02-22T07:30:42.986Z,4.13
2023-02-22T07:33:15.568Z,4.13
2023-02-22T07:35:50.364Z,4.11
2023-02-22T07:38:21.701Z,4.15
2023-02-22T07:40:53.558Z,4.20
2023-02-22T07:43:26.415Z,4.32
2023-02-22T07:45:59.875Z,4.35
2023-02-22T07:48:33.026Z,4.38
2023-02-22T07:51:05.082Z,4.42
2023-02-22T07:53:37.695Z,4.39
2023-02-22T07:56:10.576Z,4.46
2023-02-22T07:58:42.904Z,4.53
2023-02-22T08:01:15.028Z,4.52
2023-02-22T08:03:47.872Z,4.52
2023-02-22T08:06:21.274Z,4.63
2023-02-22T08:08:53.085Z,4.71
2023-02-22T08:11:26.567Z,4.79
2023-02-22T08:13:58.414Z,4.85
2023-02-22T08:16:30.139Z,4.89
2023-02-22T08:19:01.822Z,4.89
2023-02-22T08:21:33.829Z,5.00
2023-02-22T08:24:05.752Z,4.98
2023-02-22T08:26:37.406Z,5.07
2023-02-22T08:29:10.478Z,5.19
2023-02-22T08:31:42.609Z,5.14
2023-02-22T08:34:14.743Z,5.20
2023-02-22T08:36:47.278Z,5.16
2023-02-22T08:39:19.028Z,5.10
2023-02-22T08:41:50.928Z,5.10
2023-02-22T08:44:24.571Z,5.18
2023-02-22T08:46:57.155Z,5.24
2023-02-22T08:49:29.045Z,5.27
2023-02-22T08:52:00.811Z,5.24
2023-02-22T08:54:32.829Z,5.32
2023-02-22T08:57:04.422Z,5.45
2023-02-22T08:59:37.136Z,5.51
2023-02-22T09:02:18.185Z,5.53
2023-02-22T09:04:50.534Z,5.52
2023-02-22T09:07:22.198Z,5.53
2023-02-22T09:09:55.257Z,5.50
2023-02-22T09:12:26.842Z,5.55
2023-02-22T09:14:58.471Z,5.62
2023-02-22T09:17:30.693Z,5.65
2023-02-22T09:20:02.431Z,5.66
2023-02-22T09:22:34.146Z,5.78
2023-02-22T09:25:16.195Z,5.93
2023-02-22T09:27:51.485Z,5.91
2023-02-22T09:30:26.998Z,5.96
2023-02-22T09:33:02.609Z,5.99
2023-02-22T09:35:36.594Z,5.94
2023-02-22T09:38:08.588Z,5.89
2023-02-22T09:40:45.374Z,5.83
2023-02-22T09:43:33.095Z,5.84
2023-02-22T09:46:28.608Z,5.88
2023-02-22T09:49:01.626Z,5.85
2023-02-22T09:51:43.245Z,5.84
2023-02-22T09:54:23.338Z,5.80
2023-02-22T09:56:57.965Z,5.82
2023-02-22T09:59:33.200Z,5.92
2023-02-22T10:02:16.191Z,5.83
2023-02-22T10:04:54.399Z,5.92
2023-02-22T10:07:30.918Z,5.98
2023-02-22T10:10:06.805Z,5.96
2023-02-22T10:12:51.602Z,6.07
2023-02-22T10:15:53.091Z,6.08
2023-02-22T10:18:48.273Z,6.12
2023-02-22T10:21:37.499Z,6.24
2023-02-22T10:24:25.173Z,6.19
2023-02-22T10:26:59.714Z,6.06
2023-02-22T10:29:40.114Z,5.98
2023-02-22T10:32:17.108Z,6.16
2023-02-22T10:34:53.146Z,6.18
2023-02-22T10:37:30.912Z,6.23
2023-02-22T10:40:14.569Z,6.17
2023-02-22T10:42:47.653Z,6.20
2023-02-22T10:45:27.090Z,6.25
2023-02-22T10:48:01.688Z,6.22
2023-02-22T10:50:35.116Z,6.34
2023-02-22T10:53:06.936Z,6.27
2023-02-22T10:55:59.577Z,6.18
2023-02-22T10:58:31.862Z,6.00
2023-02-22T11:01:21.802Z,5.85
2023-02-22T11:04:13.274Z,5.91
2023-02-22T11:06:48.430Z,5.91
2023-02-22T11:09:22.833Z,5.77
2023-02-22T11:12:13.193Z,5.51
2023-02-22T11:14:45.387Z,5.39
2023-02-22T11:17:23.213Z,5.32
2023-02-22T11:19:55.759Z,5.36
2023-02-22T11:22:31.279Z,5.59
2023-02-22T11:25:07.819Z,5.63
2023-02-22T11:27:44.115Z,5.65
2023-02-22T11:30:27.248Z,5.44
2023-02-22T11:33:01.513Z,5.23
2023-02-22T11:35:52.901Z,5.30
2023-02-22T11:38:26.853Z,5.24
2023-02-22T11:41:17.561Z,5.21
2023-02-22T11:43:52.523Z,5.24
2023-02-22T11:46:23.638Z,5.37
2023-02-22T11:49:04.927Z,5.28
2023-02-22T11:51:55.067Z,5.20
2023-02-22T11:54:49.257Z,5.22
2023-02-22T11:57:35.284Z,5.36
2023-02-22T12:00:25.137Z,5.39
2023-02-22T12:03:28.904Z,5.38
2023-02-22T12:06:19.897Z,5.43
2023-02-22T12:09:04.944Z,5.48
2023-02-22T12:11:47.134Z,5.45
2023-02-22T12:14:29.586Z,5.54
2023-02-22T12:17:20.930Z,5.60
2023-02-22T12:19:54.575Z,5.62
2023-02-22T12:22:30.210Z,5.75
2023-02-22T12:25:10.237Z,5.85
2023-02-22T12:27:49.637Z,5.98
2023-02-22T12:30:29.161Z,6.16
2023-02-22T12:33:07.322Z,6.26
2023-02-22T12:35:46.495Z,6.16
2023-02-22T12:38:24.952Z,6.05
2023-02-22T12:41:05.108Z,5.91
2023-02-22T12:43:45.553Z,5.85
2023-02-22T12:46:22.360Z,5.70
2023-02-22T12:49:03.299Z,5.66
2023-02-22T12:51:42.854Z,5.66
2023-02-22T12:54:22.061Z,5.65
2023-02-22T12:56:59.381Z,5.62
2023-02-22T12:59:40.431Z,5.66
2023-02-22T13:02:19.847Z,5.71
2023-02-22T13:04:51.981Z,5.66
2023-02-22T13:07:37.951Z,5.50
2023-02-22T13:10:39.792Z,5.34
2023-02-22T13:13:18.545Z,5.25
2023-02-22T13:15:57.762Z,5.17
2023-02-22T13:18:38.335Z,4.87
2023-02-22T13:21:19.302Z,4.81
2023-02-22T13:24:05.158Z,4.73
2023-02-22T13:26:43.419Z,4.71
2023-02-22T13:29:19.037Z,4.79
2023-02-22T13:32:06.587Z,4.72
2023-02-22T13:34:53.663Z,4.62
2023-02-22T13:37:48.566Z,4.57
2023-02-22T13:40:41.148Z,4.54
2023-02-22T13:43:37.231Z,4.62
2023-02-22T13:46:40.114Z,4.68
2023-02-22T13:49:46.368Z,4.67
2023-02-22T13:52:21.822Z,4.54
2023-02-22T13:54:57.662Z,4.54
2023-02-22T13:57:35.836Z,4.55
2023-02-22T14:00:41.815Z,4.52
2023-02-22T14:03:30.978Z,4.42
2023-02-22T14:06:03.050Z,4.29
2023-02-22T14:08:47.828Z,4.17
2023-02-22T14:11:58.766Z,4.08
2023-02-22T14:14:30.859Z,4.19
2023-02-22T14:17:23.681Z,4.21
2023-02-22T14:20:22.004Z,4.21
2023-02-22T14:22:55.059Z,4.19
2023-02-22T14:25:43.286Z,4.28
2023-02-22T14:28:40.774Z,4.25
2023-02-22T14:31:29.513Z,4.23
2023-02-22T14:34:12.030Z,4.23
2023-02-22T14:36:53.453Z,4.29
2023-02-22T14:39:32.395Z,4.15
2023-02-22T14:42:09.204Z,4.15
2023-02-22T14:44:49.195Z,4.18
2023-02-22T14:47:29.666Z,4.09
2023-02-22T14:50:08.549Z,4.12
2023-02-22T14:52:46.782Z,3.90
2023-02-22T14:55:27.213Z,3.81
2023-02-22T14:58:08.886Z,3.84
2023-02-22T15:00:46.413Z,3.83
2023-02-22T15:03:33.435Z,3.85
2023-02-22T15:06:20.081Z,3.80
2023-02-22T15:09:08.016Z,3.81
2023-02-22T15:11:40.105Z,3.83
2023-02-22T15:14:26.343Z,3.89
2023-02-22T15:17:02.149Z,3.84
2023-02-22T15:19:39.166Z,3.92
2023-02-22T15:22:23.161Z,3.98
2023-02-22T15:25:03.146Z,4.03
2023-02-22T15:27:37.512Z,4.01
2023-02-22T15:30:18.295Z,3.88
2023-02-22T15:33:03.705Z,3.73
2023-02-22T15:35:36.981Z,3.63
2023-02-22T15:38:22.341Z,3.51
2023-02-22T15:41:05.783Z,3.46
2023-02-22T15:43:38.878Z,3.48
2023-02-22T15:46:11.878Z,3.44
2023-02-22T15:48:44.930Z,3.34
2023-02-22T15:51:19.696Z,3.37
2023-02-22T15:53:53.302Z,3.41
2023-02-22T15:56:33.056Z,3.36
2023-02-22T15:59:09.173Z,3.34
2023-02-22T16:01:43.428Z,3.35
2023-02-22T16:04:23.074Z,3.33
2023-02-22T16:07:04.102Z,3.45
2023-02-22T16:09:36.689Z,3.42
2023-02-22T16:12:28.595Z,3.35
2023-02-22T16:15:01.821Z,3.36
2023-02-22T16:18:02.288Z,3.25
2023-02-22T16:20:39.130Z,3.23
2023-02-22T16:23:29.062Z,3.14
2023-02-22T16:26:20.564Z,3.10
2023-02-22T16:28:54.697Z,3.08
2023-02-22T16:31:29.579Z,3.09
2023-02-22T16:34:03.997Z,3.08
2023-02-22T16:36:46.335Z,2.95
2023-02-22T16:39:27.661Z,2.88
2023-02-22T16:42:03.238Z,2.78
2023-02-22T16:44:39.125Z,2.79
2023-02-22T16:47:13.937Z,2.71
2023-02-22T16:49:52.997Z,2.64
2023-02-22T16:52:24.920Z,2.60
2023-02-22T16:54:56.508Z,2.65
2023-02-22T16:57:33.436Z,2.65
2023-02-22T17:00:10.167Z,2.61
2023-02-22T17:02:46.106Z,2.51
2023-02-22T17:05:20.282Z,2.51
2023-02-22T17:07:53.695Z,2.57
2023-02-22T17:10:27.135Z,2.69
2023-02-22T17:13:20.119Z,2.79
2023-02-22T17:15:55.669Z,2.69
2023-02-22T17:18:34.854Z,2.73
2023-02-22T17:21:16.739Z,2.70
2023-02-22T17:23:49.622Z,2.66
2023-02-22T17:26:27.050Z,2.65
2023-02-22T17:29:04.050Z,2.56
2023-02-22T17:31:37.201Z,2.51
2023-02-22T17:34:10.021Z,2.42
2023-02-22T17:36:42.825Z,2.29
2023-02-22T17:39:17.692Z,2.29
2023-02-22T17:41:53.386Z,2.28
2023-02-22T17:44:31.032Z,2.30
2023-02-22T17:47:05.860Z,2.22
2023-02-22T17:49:38.407Z,2.28
2023-02-22T17:52:16.480Z,2.24
2023-02-22T17:54:49.110Z,2.31
2023-02-22T17:57:28.350Z,2.24
2023-02-22T18:00:13.283Z,2.29
2023-02-22T18:02:50.835Z,2.27
2023-02-22T18:05:27.395Z,2.38
2023-02-22T18:08:07.798Z,2.48
2023-02-22T18:10:43.202Z,2.46
2023-02-22T18:13:19.496Z,2.44
2023-02-22T18:15:55.375Z,2.34
2023-02-22T18:18:32.520Z,2.24
2023-02-22T18:21:07.223Z,2.28
2023-02-22T18:23:43.044Z,2.30
2023-02-22T18:26:20.498Z,2.36
2023-02-22T18:28:55.693Z,2.40
2023-02-22T18:31:29.334Z,2.32
2023-02-22T18:34:03.238Z,2.28
2023-02-22T18:36:40.621Z,2.20
2023-02-22T18:39:16.481Z,2.03
2023-02-22T18:42:01.402Z,2.06
2023-02-22T18:44:37.556Z,2.06
2023-02-22T18:47:19.314Z,1.99
2023-02-22T18:49:54.461Z,1.88
2023-02-22T18:52:32.840Z,1.91
2023-02-22T18:55:09.649Z,1.97
2023-02-22T19:00:45.004Z,1.94
2023-02-22T19:03:23.011Z,1.98
2023-02-22T19:05:58.569Z,2.00
2023-02-22T19:08:33.300Z,1.96
2023-02-22T19:11:09.810Z,2.01
2023-02-22T19:13:54.817Z,1.99
2023-02-22T19:16:34.499Z,1.89
2023-02-22T19:19:10.310Z,1.83
2023-02-22T19:21:46.094Z,1.78
2023-02-22T19:24:21.376Z,1.88
2023-02-22T19:27:01.197Z,1.96
2023-02-22T19:29:39.576Z,2.10
2023-02-22T19:32:13.619Z,2.14
2023-02-22T19:34:50.840Z,2.04
2023-02-22T19:37:25.756Z,2.14
2023-02-22T19:40:02.067Z,2.18
2023-02-22T19:42:40.952Z,2.12
2023-02-22T19:45:22.659Z,1.93
2023-02-22T19:47:59.672Z,1.88
2023-02-22T19:50:40.624Z,1.86
2023-02-22T19:53:19.150Z,1.76
2023-02-22T19:56:00.492Z,1.73
2023-02-22T19:58:37.844Z,1.64
2023-02-22T20:01:29.010Z,1.61
2023-02-22T20:04:18.766Z,1.85
2023-02-22T20:06:59.508Z,1.91
2023-02-22T20:09:37.371Z,1.79
2023-02-22T20:12:15.158Z,1.80
2023-02-22T20:14:59.322Z,1.80
2023-02-22T20:17:34.909Z,1.86
2023-02-22T20:20:10.572Z,1.78
2023-02-22T20:22:46.683Z,1.61
2023-02-22T20:25:26.749Z,1.50
2023-02-22T20:28:02.648Z,1.52
2023-02-22T20:30:38.656Z,1.47
2023-02-22T20:33:14.571Z,1.46
2023-02-22T20:35:50.063Z,1.45
2023-02-22T20:38:26.915Z,1.55
2023-02-22T20:41:08.016Z,1.75
2023-02-22T20:43:42.612Z,1.83
2023-02-22T20:46:19.483Z,1.84
2023-02-22T20:48:59.456Z,1.90
2023-02-22T20:51:33.462Z,1.82
2023-02-22T20:54:09.465Z,1.76
2023-02-22T20:56:45.041Z,1.79
2023-02-22T20:59:25.340Z,1.75
2023-02-22T21:02:01.411Z,1.69
2023-02-22T21:04:36.339Z,1.83
2023-02-22T21:07:09.928Z,2.02
2023-02-22T21:09:44.302Z,2.00
2023-02-22T21:12:18.373Z,1.78
2023-02-22T21:14:51.375Z,1.60
2023-02-22T21:17:30.124Z,1.62
2023-02-22T21:20:13.135Z,1.47
2023-02-22T21:22:51.914Z,1.28
2023-02-22T21:25:25.515Z,1.33
2023-02-22T21:28:00.380Z,1.35
2023-02-22T21:30:38.594Z,1.25
2023-02-22T21:33:12.731Z,1.09
2023-02-22T21:35:47.886Z,0.99
2023-02-22T21:38:21.156Z,0.88
2023-02-22T21:40:59.183Z,0.88
2023-02-22T21:43:33.743Z,0.93
2023-02-22T21:46:11.185Z,1.12
2023-02-22T21:48:49.242Z,1.10
2023-02-22T21:51:23.577Z,0.91
2023-02-22T21:53:56.738Z,0.87
2023-02-22T21:56:29.142Z,0.78
2023-02-22T21:59:03.340Z,0.68
2023-02-22T22:01:36.970Z,0.67
2023-02-22T22:04:09.963Z,0.59
2023-02-22T22:06:41.693Z,0.51
2023-02-22T22:09:18.581Z,0.61
2023-02-22T22:11:52.717Z,0.69
2023-02-22T22:14:28.517Z,0.80
2023-02-22T22:17:01.803Z,0.83
2023-02-22T22:19:39.516Z,0.67
2023-02-22T22:22:13.100Z,0.57
2023-02-22T22:24:46.260Z,0.54
2023-02-22T22:27:18.518Z,0.60
2023-02-22T22:29:52.247Z,0.50
2023-02-22T22:32:24.792Z,0.48
2023-02-22T22:34:59.728Z,0.45
2023-02-22T22:37:32.180Z,0.38
2023-02-22T22:40:05.957Z,0.45
2023-02-22T22:42:38.430Z,0.49
2023-02-22T22:45:12.626Z,0.40
2023-02-22T22:47:46.327Z,0.29
2023-02-22T22:50:26.651Z,0.29
2023-02-22T22:52:58.452Z,0.20
2023-02-22T22:55:30.242Z,0.30
2023-02-22T22:58:02.548Z,0.19
2023-02-22T23:00:37.976Z,0.20
2023-02-22T23:03:18.072Z,0.25
2023-02-22T23:05:50.264Z,0.50
2023-02-22T23:08:29.535Z,0.43
2023-02-22T23:11:09.455Z,0.31
2023-02-22T23:13:41.551Z,0.45
2023-02-22T23:16:14.118Z,0.39
2023-02-22T23:18:46.630Z,0.34
2023-02-22T23:21:19.966Z,0.15
2023-02-22T23:23:53.784Z,0.22
2023-02-22T23:26:27.106Z,0.27
2023-02-22T23:29:00.921Z,0.20
2023-02-22T23:31:33.341Z,0.03
2023-02-22T23:34:11.390Z,0.06
2023-02-22T23:36:44.611Z,-0.04
2023-02-22T23:39:18.147Z,0.06
2023-02-22T23:41:53.392Z,0.18
2023-02-22T23:44:27.477Z,0.15
2023-02-22T23:47:00.550Z,0.28
2023-02-22T23:49:37.428Z,0.13
2023-02-22T23:52:10.254Z,-0.04
2023-02-22T23:54:44.281Z,-0.23
2023-02-22T23:57:17.848Z,-0.39
2023-02-22T23:59:51.678Z,-0.42
